sensor_id;sensor_type;location;lat;lon;timestamp;pressure;altitude;pressure_sealevel;temperature;humidity
60258;BME280;46115;44.484;11.314;2022-12-18T00:02:55;101479.34;;;7.76;94.29
60258;BME280;46115;44.484;11.314;2022-12-18T00:06:58;101494.63;;;8.00;92.91
60258;BME280;46115;44.484;11.314;2022-12-18T00:11:04;101503.56;;;7.92;93.38
60258;BME280;46115;44.484;11.314;2022-12-18T00:15:07;101504.31;;;7.98;92.44
60258;BME280;46115;44.484;11.314;2022-12-18T00:19:10;101502.00;;;7.83;92.53
60258;BME280;46115;44.484;11.314;2022-12-18T00:23:12;101507.53;;;8.11;90.96
60258;BME280;46115;44.484;11.314;2022-12-18T00:27:16;101509.88;;;7.85;90.43
60258;BME280;46115;44.484;11.314;2022-12-18T00:31:20;101482.88;;;7.75;91.69
60258;BME280;46115;44.484;11.314;2022-12-18T00:35:22;101527.50;;;7.81;92.42
60258;BME280;46115;44.484;11.314;2022-12-18T00:39:24;101536.69;;;8.03;91.21
60258;BME280;46115;44.484;11.314;2022-12-18T00:43:28;101526.47;;;7.88;90.13
60258;BME280;46115;44.484;11.314;2022-12-18T00:47:31;101547.75;;;7.77;91.09
60258;BME280;46115;44.484;11.314;2022-12-18T00:51:33;101555.59;;;7.80;90.79
60258;BME280;46115;44.484;11.314;2022-12-18T00:55:37;101555.16;;;7.57;90.42
60258;BME280;46115;44.484;11.314;2022-12-18T00:59:41;101551.06;;;7.42;89.96
60258;BME280;46115;44.484;11.314;2022-12-18T01:03:43;101545.97;;;7.33;88.86
60258;BME280;46115;44.484;11.314;2022-12-18T01:07:46;101562.63;;;7.34;86.88
60258;BME280;46115;44.484;11.314;2022-12-18T01:11:48;101559.16;;;7.32;85.80
60258;BME280;46115;44.484;11.314;2022-12-18T01:15:52;101563.63;;;7.27;86.26
60258;BME280;46115;44.484;11.314;2022-12-18T01:19:54;101557.63;;;7.18;87.42
60258;BME280;46115;44.484;11.314;2022-12-18T01:23:56;101559.50;;;7.12;88.91
60258;BME280;46115;44.484;11.314;2022-12-18T01:27:59;101543.56;;;7.21;89.94
60258;BME280;46115;44.484;11.314;2022-12-18T01:32:03;101555.78;;;7.24;89.40
60258;BME280;46115;44.484;11.314;2022-12-18T01:36:05;101560.22;;;7.20;89.87
60258;BME280;46115;44.484;11.314;2022-12-18T01:40:09;101554.28;;;7.10;90.58
60258;BME280;46115;44.484;11.314;2022-12-18T01:48:54;101563.34;;;6.94;90.29
60258;BME280;46115;44.484;11.314;2022-12-18T01:53:02;101554.75;;;6.81;90.34
60258;BME280;46115;44.484;11.314;2022-12-18T01:57:05;101563.47;;;6.83;89.22
60258;BME280;46115;44.484;11.314;2022-12-18T02:01:08;101559.31;;;6.70;90.18
60258;BME280;46115;44.484;11.314;2022-12-18T02:05:15;101577.97;;;6.52;90.38
60258;BME280;46115;44.484;11.314;2022-12-18T02:09:21;101585.94;;;6.47;89.80
60258;BME280;46115;44.484;11.314;2022-12-18T02:13:29;101586.94;;;6.39;89.27
60258;BME280;46115;44.484;11.314;2022-12-18T02:17:38;101597.47;;;6.37;89.41
60258;BME280;46115;44.484;11.314;2022-12-18T02:21:51;101593.31;;;6.19;89.89
60258;BME280;46115;44.484;11.314;2022-12-18T02:26:14;101602.00;;;6.23;90.23
60258;BME280;46115;44.484;11.314;2022-12-18T02:30:18;101603.09;;;6.07;90.78
60258;BME280;46115;44.484;11.314;2022-12-18T02:34:25;101610.03;;;6.12;89.65
60258;BME280;46115;44.484;11.314;2022-12-18T02:38:30;101619.72;;;6.07;90.06
60258;BME280;46115;44.484;11.314;2022-12-18T02:42:41;101624.03;;;6.11;89.95
60258;BME280;46115;44.484;11.314;2022-12-18T02:46:48;101626.03;;;5.94;89.75
60258;BME280;46115;44.484;11.314;2022-12-18T02:50:59;101638.09;;;6.07;89.95
60258;BME280;46115;44.484;11.314;2022-12-18T02:55:14;101648.72;;;5.97;90.47
60258;BME280;46115;44.484;11.314;2022-12-18T02:59:28;101654.78;;;6.03;90.10
60258;BME280;46115;44.484;11.314;2022-12-18T03:03:33;101657.56;;;5.91;91.22
60258;BME280;46115;44.484;11.314;2022-12-18T03:07:42;101659.22;;;5.97;91.98
60258;BME280;46115;44.484;11.314;2022-12-18T03:11:53;101663.47;;;6.08;90.27
60258;BME280;46115;44.484;11.314;2022-12-18T03:16:22;101669.59;;;6.07;90.59
60258;BME280;46115;44.484;11.314;2022-12-18T03:20:29;101668.88;;;5.94;91.68
60258;BME280;46115;44.484;11.314;2022-12-18T03:24:33;101680.97;;;6.09;91.38
60258;BME280;46115;44.484;11.314;2022-12-18T03:28:44;101669.63;;;6.06;89.31
60258;BME280;46115;44.484;11.314;2022-12-18T03:32:52;101670.50;;;6.06;88.87
60258;BME280;46115;44.484;11.314;2022-12-18T03:36:57;101675.72;;;6.08;90.50
60258;BME280;46115;44.484;11.314;2022-12-18T03:41:04;101671.50;;;5.94;90.94
60258;BME280;46115;44.484;11.314;2022-12-18T03:45:21;101679.19;;;6.10;91.72
60258;BME280;46115;44.484;11.314;2022-12-18T03:49:31;101686.13;;;6.17;90.93
60258;BME280;46115;44.484;11.314;2022-12-18T03:53:40;101673.13;;;6.06;91.75
60258;BME280;46115;44.484;11.314;2022-12-18T03:57:47;101688.56;;;6.34;90.67
60258;BME280;46115;44.484;11.314;2022-12-18T04:01:51;101679.22;;;6.08;91.66
60258;BME280;46115;44.484;11.314;2022-12-18T04:05:57;101682.97;;;5.81;93.62
60258;BME280;46115;44.484;11.314;2022-12-18T04:10:04;101702.06;;;6.00;91.44
60258;BME280;46115;44.484;11.314;2022-12-18T04:14:09;101671.66;;;5.76;90.19
60258;BME280;46115;44.484;11.314;2022-12-18T04:18:11;101707.19;;;6.11;89.07
60258;BME280;46115;44.484;11.314;2022-12-18T04:22:18;101705.38;;;6.16;88.91
60258;BME280;46115;44.484;11.314;2022-12-18T04:26:25;101716.69;;;6.21;88.94
60258;BME280;46115;44.484;11.314;2022-12-18T04:30:43;101720.19;;;6.24;86.04
60258;BME280;46115;44.484;11.314;2022-12-18T04:34:46;101735.09;;;6.19;88.68
60258;BME280;46115;44.484;11.314;2022-12-18T04:38:49;101743.69;;;6.35;89.86
60258;BME280;46115;44.484;11.314;2022-12-18T04:42:52;101746.38;;;6.31;88.90
60258;BME280;46115;44.484;11.314;2022-12-18T04:46:54;101752.53;;;6.28;88.63
60258;BME280;46115;44.484;11.314;2022-12-18T04:50:58;101756.94;;;6.23;89.98
60258;BME280;46115;44.484;11.314;2022-12-18T04:55:02;101773.41;;;6.40;88.23
60258;BME280;46115;44.484;11.314;2022-12-18T04:59:05;101781.22;;;6.46;88.57
60258;BME280;46115;44.484;11.314;2022-12-18T05:03:07;101783.88;;;6.43;89.03
60258;BME280;46115;44.484;11.314;2022-12-18T05:07:10;101782.16;;;6.39;88.69
60258;BME280;46115;44.484;11.314;2022-12-18T05:11:14;101780.31;;;6.47;85.76
60258;BME280;46115;44.484;11.314;2022-12-18T05:15:17;101785.50;;;6.53;85.19
60258;BME280;46115;44.484;11.314;2022-12-18T05:19:19;101785.59;;;6.46;85.38
60258;BME280;46115;44.484;11.314;2022-12-18T05:23:22;101771.53;;;6.50;84.46
60258;BME280;46115;44.484;11.314;2022-12-18T05:27:26;101804.00;;;6.44;90.00
60258;BME280;46115;44.484;11.314;2022-12-18T05:31:28;101803.13;;;6.44;89.60
60258;BME280;46115;44.484;11.314;2022-12-18T05:35:31;101808.38;;;6.44;88.54
60258;BME280;46115;44.484;11.314;2022-12-18T05:39:33;101819.81;;;6.38;87.09
60258;BME280;46115;44.484;11.314;2022-12-18T05:43:38;101824.88;;;6.56;83.73
60258;BME280;46115;44.484;11.314;2022-12-18T05:47:40;101832.94;;;6.41;85.49
60258;BME280;46115;44.484;11.314;2022-12-18T05:51:42;101825.75;;;6.57;85.63
60258;BME280;46115;44.484;11.314;2022-12-18T05:55:45;101842.59;;;6.38;87.32
60258;BME280;46115;44.484;11.314;2022-12-18T05:59:49;101826.03;;;6.31;82.64
60258;BME280;46115;44.484;11.314;2022-12-18T06:03:52;101851.28;;;6.44;82.84
60258;BME280;46115;44.484;11.314;2022-12-18T06:07:54;101854.81;;;6.40;83.95
60258;BME280;46115;44.484;11.314;2022-12-18T06:11:57;101862.69;;;6.42;83.52
60258;BME280;46115;44.484;11.314;2022-12-18T06:16:03;101853.97;;;6.40;81.52
60258;BME280;46115;44.484;11.314;2022-12-18T06:20:07;101847.97;;;6.22;83.22
60258;BME280;46115;44.484;11.314;2022-12-18T06:24:09;101861.16;;;6.16;84.98
60258;BME280;46115;44.484;11.314;2022-12-18T06:28:12;101822.03;;;5.90;82.20
60258;BME280;46115;44.484;11.314;2022-12-18T06:32:15;101872.56;;;6.14;80.09
60258;BME280;46115;44.484;11.314;2022-12-18T06:36:18;101889.38;;;5.94;82.53
60258;BME280;46115;44.484;11.314;2022-12-18T06:40:20;101895.41;;;6.06;78.88
60258;BME280;46115;44.484;11.314;2022-12-18T06:44:23;101906.00;;;5.93;79.77
60258;BME280;46115;44.484;11.314;2022-12-18T06:48:27;101904.22;;;5.88;81.29
60258;BME280;46115;44.484;11.314;2022-12-18T06:52:31;101913.00;;;5.91;81.83
60258;BME280;46115;44.484;11.314;2022-12-18T06:56:34;101913.91;;;5.81;81.76
60258;BME280;46115;44.484;11.314;2022-12-18T07:00:36;101912.16;;;5.79;80.13
60258;BME280;46115;44.484;11.314;2022-12-18T07:04:40;101928.03;;;5.62;81.34
60258;BME280;46115;44.484;11.314;2022-12-18T07:08:42;101933.28;;;5.59;81.97
60258;BME280;46115;44.484;11.314;2022-12-18T07:12:45;101934.91;;;5.77;79.95
60258;BME280;46115;44.484;11.314;2022-12-18T07:16:47;101952.41;;;5.76;81.37
60258;BME280;46115;44.484;11.314;2022-12-18T07:20:50;101966.47;;;5.68;81.07
60258;BME280;46115;44.484;11.314;2022-12-18T07:24:53;101969.94;;;5.74;80.63
60258;BME280;46115;44.484;11.314;2022-12-18T07:28:57;101949.91;;;5.58;81.69
60258;BME280;46115;44.484;11.314;2022-12-18T07:33:00;101962.16;;;5.59;80.72
60258;BME280;46115;44.484;11.314;2022-12-18T07:37:03;101965.66;;;5.50;81.24
60258;BME280;46115;44.484;11.314;2022-12-18T07:41:07;101956.88;;;5.60;80.74
60258;BME280;46115;44.484;11.314;2022-12-18T07:45:10;101979.53;;;5.78;80.79
60258;BME280;46115;44.484;11.314;2022-12-18T07:49:12;101981.31;;;5.72;82.37
60258;BME280;46115;44.484;11.314;2022-12-18T07:53:16;101981.66;;;6.56;80.21
60258;BME280;46115;44.484;11.314;2022-12-18T07:57:18;101975.88;;;7.12;76.92
60258;BME280;46115;44.484;11.314;2022-12-18T08:01:20;101985.94;;;7.52;74.63
60258;BME280;46115;44.484;11.314;2022-12-18T08:05:23;101993.94;;;8.10;73.06
60258;BME280;46115;44.484;11.314;2022-12-18T08:09:27;101994.34;;;8.43;72.28
60258;BME280;46115;44.484;11.314;2022-12-18T08:13:29;101960.59;;;8.65;69.56
60258;BME280;46115;44.484;11.314;2022-12-18T08:17:31;102011.03;;;8.96;68.43
60258;BME280;46115;44.484;11.314;2022-12-18T08:21:34;102011.56;;;9.59;66.44
60258;BME280;46115;44.484;11.314;2022-12-18T08:25:37;102016.56;;;10.89;63.05
60258;BME280;46115;44.484;11.314;2022-12-18T08:29:39;102032.00;;;10.70;61.07
60258;BME280;46115;44.484;11.314;2022-12-18T08:33:42;102043.31;;;11.45;57.67
60258;BME280;46115;44.484;11.314;2022-12-18T08:37:44;102050.53;;;12.86;54.77
60258;BME280;46115;44.484;11.314;2022-12-18T08:41:48;102052.81;;;12.96;51.45
60258;BME280;46115;44.484;11.314;2022-12-18T08:46:05;102075.38;;;13.84;49.73
60258;BME280;46115;44.484;11.314;2022-12-18T08:50:09;102085.38;;;15.34;46.57
60258;BME280;46115;44.484;11.314;2022-12-18T08:54:12;102085.50;;;13.74;49.41
60258;BME280;46115;44.484;11.314;2022-12-18T08:58:16;102078.91;;;14.77;49.01
60258;BME280;46115;44.484;11.314;2022-12-18T09:02:18;102098.47;;;15.18;46.54
60258;BME280;46115;44.484;11.314;2022-12-18T09:06:22;102096.16;;;16.68;43.57
60258;BME280;46115;44.484;11.314;2022-12-18T09:10:24;102112.94;;;15.12;46.54
60258;BME280;46115;44.484;11.314;2022-12-18T09:14:28;102108.66;;;15.08;46.46
60258;BME280;46115;44.484;11.314;2022-12-18T09:18:30;102106.28;;;12.58;52.49
60258;BME280;46115;44.484;11.314;2022-12-18T09:22:33;102109.16;;;13.04;53.13
60258;BME280;46115;44.484;11.314;2022-12-18T09:26:35;102107.09;;;11.68;56.02
60258;BME280;46115;44.484;11.314;2022-12-18T09:30:39;102086.63;;;12.63;52.55
60258;BME280;46115;44.484;11.314;2022-12-18T09:34:42;102126.34;;;11.75;55.45
60258;BME280;46115;44.484;11.314;2022-12-18T09:38:44;102123.91;;;11.67;55.40
60258;BME280;46115;44.484;11.314;2022-12-18T09:42:51;102096.81;;;11.23;55.52
60258;BME280;46115;44.484;11.314;2022-12-18T09:47:03;102113.72;;;10.82;57.33
60258;BME280;46115;44.484;11.314;2022-12-18T09:51:13;102109.28;;;11.20;55.21
60258;BME280;46115;44.484;11.314;2022-12-18T09:55:23;102108.31;;;10.87;55.78
60258;BME280;46115;44.484;11.314;2022-12-18T09:59:30;102098.88;;;10.38;59.43
60258;BME280;46115;44.484;11.314;2022-12-18T10:03:35;102098.34;;;10.98;58.09
60258;BME280;46115;44.484;11.314;2022-12-18T10:07:48;102091.00;;;10.74;58.41
60258;BME280;46115;44.484;11.314;2022-12-18T10:11:55;102084.22;;;10.62;57.38
60258;BME280;46115;44.484;11.314;2022-12-18T10:16:10;102074.09;;;10.81;55.69
60258;BME280;46115;44.484;11.314;2022-12-18T10:20:22;102078.75;;;10.31;58.02
60258;BME280;46115;44.484;11.314;2022-12-18T10:24:32;102061.16;;;10.30;59.09
60258;BME280;46115;44.484;11.314;2022-12-18T10:28:37;102068.34;;;10.25;59.72
60258;BME280;46115;44.484;11.314;2022-12-18T10:32:41;102036.38;;;9.94;60.16
60258;BME280;46115;44.484;11.314;2022-12-18T10:36:44;102074.50;;;11.00;58.21
60258;BME280;46115;44.484;11.314;2022-12-18T10:40:51;102063.09;;;10.60;60.20
60258;BME280;46115;44.484;11.314;2022-12-18T10:45:00;102061.78;;;10.43;60.36
60258;BME280;46115;44.484;11.314;2022-12-18T10:49:04;102056.53;;;10.40;59.09
60258;BME280;46115;44.484;11.314;2022-12-18T10:53:18;102048.38;;;10.50;59.87
60258;BME280;46115;44.484;11.314;2022-12-18T10:57:31;102043.53;;;10.68;60.80
60258;BME280;46115;44.484;11.314;2022-12-18T11:01:46;102046.94;;;10.36;60.96
60258;BME280;46115;44.484;11.314;2022-12-18T11:06:01;102051.31;;;10.74;59.78
60258;BME280;46115;44.484;11.314;2022-12-18T11:10:16;102057.44;;;9.97;60.88
60258;BME280;46115;44.484;11.314;2022-12-18T11:14:22;102015.00;;;9.64;59.93
60258;BME280;46115;44.484;11.314;2022-12-18T11:18:28;102052.22;;;9.94;60.81
60258;BME280;46115;44.484;11.314;2022-12-18T11:22:33;102047.53;;;10.48;60.88
60258;BME280;46115;44.484;11.314;2022-12-18T11:26:37;102062.53;;;10.48;61.22
60258;BME280;46115;44.484;11.314;2022-12-18T11:30:40;102053.59;;;10.53;60.48
60258;BME280;46115;44.484;11.314;2022-12-18T11:34:45;102054.34;;;10.18;61.78
60258;BME280;46115;44.484;11.314;2022-12-18T11:38:50;102045.69;;;10.12;62.17
60258;BME280;46115;44.484;11.314;2022-12-18T11:43:00;102066.19;;;10.00;62.65
60258;BME280;46115;44.484;11.314;2022-12-18T11:47:12;102064.81;;;10.24;62.56
60258;BME280;46115;44.484;11.314;2022-12-18T11:51:22;102061.53;;;10.13;62.12
60258;BME280;46115;44.484;11.314;2022-12-18T11:55:33;102056.09;;;10.21;61.96
60258;BME280;46115;44.484;11.314;2022-12-18T11:59:47;102052.00;;;10.46;60.76
60258;BME280;46115;44.484;11.314;2022-12-18T12:08:44;102045.34;;;10.28;62.52
60258;BME280;46115;44.484;11.314;2022-12-18T12:13:12;102047.00;;;10.32;62.14
60258;BME280;46115;44.484;11.314;2022-12-18T12:17:25;102026.84;;;9.87;62.91
60258;BME280;46115;44.484;11.314;2022-12-18T12:21:39;102023.28;;;9.89;63.54
60258;BME280;46115;44.484;11.314;2022-12-18T12:25:47;102028.22;;;10.06;63.19
60258;BME280;46115;44.484;11.314;2022-12-18T12:30:00;102020.66;;;9.88;63.58
60258;BME280;46115;44.484;11.314;2022-12-18T12:34:14;102040.22;;;10.19;62.99
60258;BME280;46115;44.484;11.314;2022-12-18T12:38:22;101996.50;;;10.05;61.83
60258;BME280;46115;44.484;11.314;2022-12-18T12:42:32;102041.91;;;9.83;63.49
60258;BME280;46115;44.484;11.314;2022-12-18T12:46:59;102026.44;;;10.07;63.68
60258;BME280;46115;44.484;11.314;2022-12-18T12:51:10;102031.63;;;10.11;63.86
60258;BME280;46115;44.484;11.314;2022-12-18T12:55:17;102033.59;;;10.00;63.21
60258;BME280;46115;44.484;11.314;2022-12-18T12:59:25;102040.56;;;9.62;64.92
60258;BME280;46115;44.484;11.314;2022-12-18T13:03:36;102039.97;;;9.48;65.61
60258;BME280;46115;44.484;11.314;2022-12-18T13:07:47;102036.88;;;9.69;65.07
60258;BME280;46115;44.484;11.314;2022-12-18T13:11:52;102008.00;;;9.62;64.44
60258;BME280;46115;44.484;11.314;2022-12-18T13:16:11;102032.09;;;9.88;64.11
60258;BME280;46115;44.484;11.314;2022-12-18T13:20:15;102040.00;;;9.47;65.84
60258;BME280;46115;44.484;11.314;2022-12-18T13:24:24;102046.41;;;9.78;65.38
60258;BME280;46115;44.484;11.314;2022-12-18T13:28:50;102054.44;;;9.74;64.78
60258;BME280;46115;44.484;11.314;2022-12-18T13:33:35;102056.72;;;9.47;66.51
60258;BME280;46115;44.484;11.314;2022-12-18T13:37:43;102014.22;;;9.15;67.12
60258;BME280;46115;44.484;11.314;2022-12-18T13:47:26;102044.28;;;9.52;66.15
60258;BME280;46115;44.484;11.314;2022-12-18T13:51:32;102042.56;;;9.50;67.55
60258;BME280;46115;44.484;11.314;2022-12-18T13:55:35;102045.41;;;9.41;67.90
60258;BME280;46115;44.484;11.314;2022-12-18T13:59:39;102027.38;;;9.16;67.96
60258;BME280;46115;44.484;11.314;2022-12-18T14:03:41;102035.03;;;9.30;68.54
60258;BME280;46115;44.484;11.314;2022-12-18T14:07:44;101996.00;;;8.99;68.52
60258;BME280;46115;44.484;11.314;2022-12-18T14:11:47;102038.50;;;9.32;68.49
60258;BME280;46115;44.484;11.314;2022-12-18T14:15:52;102040.84;;;8.99;69.98
60258;BME280;46115;44.484;11.314;2022-12-18T14:19:56;102030.22;;;9.05;70.26
60258;BME280;46115;44.484;11.314;2022-12-18T14:24:11;102038.28;;;8.95;69.99
60258;BME280;46115;44.484;11.314;2022-12-18T14:28:15;102040.47;;;8.71;70.49
60258;BME280;46115;44.484;11.314;2022-12-18T14:32:20;102043.13;;;8.70;70.92
60258;BME280;46115;44.484;11.314;2022-12-18T14:36:24;102051.19;;;8.59;72.08
60258;BME280;46115;44.484;11.314;2022-12-18T14:40:27;102048.44;;;8.65;70.87
60258;BME280;46115;44.484;11.314;2022-12-18T14:44:30;102052.88;;;8.63;71.50
60258;BME280;46115;44.484;11.314;2022-12-18T14:48:36;102050.53;;;8.47;71.90
60258;BME280;46115;44.484;11.314;2022-12-18T14:52:42;102058.09;;;8.69;71.38
60258;BME280;46115;44.484;11.314;2022-12-18T14:56:47;102032.84;;;8.53;72.20
60258;BME280;46115;44.484;11.314;2022-12-18T15:00:50;102065.50;;;8.43;72.22
60258;BME280;46115;44.484;11.314;2022-12-18T15:05:03;102057.72;;;8.31;72.59
60258;BME280;46115;44.484;11.314;2022-12-18T15:09:22;102056.84;;;8.30;72.84
60258;BME280;46115;44.484;11.314;2022-12-18T15:13:25;102042.03;;;8.23;72.93
60258;BME280;46115;44.484;11.314;2022-12-18T15:17:28;102050.88;;;8.19;73.83
60258;BME280;46115;44.484;11.314;2022-12-18T15:21:32;102061.69;;;8.01;74.86
60258;BME280;46115;44.484;11.314;2022-12-18T15:25:36;102058.31;;;7.88;75.93
60258;BME280;46115;44.484;11.314;2022-12-18T15:29:39;102045.19;;;7.85;76.06
60258;BME280;46115;44.484;11.314;2022-12-18T15:33:43;102064.75;;;7.64;76.59
60258;BME280;46115;44.484;11.314;2022-12-18T15:37:49;102077.78;;;7.76;76.94
60258;BME280;46115;44.484;11.314;2022-12-18T15:41:52;102074.28;;;7.74;76.29
60258;BME280;46115;44.484;11.314;2022-12-18T15:46:14;102075.78;;;7.94;75.90
60258;BME280;46115;44.484;11.314;2022-12-18T15:50:16;102090.25;;;7.58;77.48
60258;BME280;46115;44.484;11.314;2022-12-18T23:06:08;102230.25;;;4.18;91.52
60258;BME280;46115;44.484;11.314;2022-12-18T23:10:11;102245.09;;;4.22;91.17
60258;BME280;46115;44.484;11.314;2022-12-18T23:14:14;102238.16;;;4.28;91.17
60258;BME280;46115;44.484;11.314;2022-12-18T23:18:16;102237.34;;;4.45;91.03
60258;BME280;46115;44.484;11.314;2022-12-18T23:22:20;102250.53;;;4.67;90.56
60258;BME280;46115;44.484;11.314;2022-12-18T23:26:23;102246.16;;;4.60;91.08
60258;BME280;46115;44.484;11.314;2022-12-18T23:30:26;102248.78;;;4.63;90.85
60258;BME280;46115;44.484;11.314;2022-12-18T23:34:28;102229.44;;;4.31;92.50
60258;BME280;46115;44.484;11.314;2022-12-18T23:38:33;102227.75;;;4.48;90.67
60258;BME280;46115;44.484;11.314;2022-12-18T23:42:35;102224.19;;;4.28;92.84
60258;BME280;46115;44.484;11.314;2022-12-18T23:46:38;102226.00;;;4.50;91.45
60258;BME280;46115;44.484;11.314;2022-12-18T23:50:40;102206.00;;;4.58;91.61
60258;BME280;46115;44.484;11.314;2022-12-18T23:54:44;102156.84;;;3.98;91.44
60258;BME280;46115;44.484;11.314;2022-12-18T23:58:47;102197.19;;;4.44;93.25
